sensor_id;sensor_type;location;lat;lon;timestamp;pressure;altitude;pressure_sealevel;temperature;humidity
49102;BME280;34913;47.520;19.186;2023-11-18T00:00:07;99773.41;;;4.29;81.56
49102;BME280;34913;47.520;19.186;2023-11-18T00:02:38;99761.09;;;4.15;82.24
49102;BME280;34913;47.520;19.186;2023-11-18T00:05:04;99766.34;;;4.15;81.96
49102;BME280;34913;47.520;19.186;2023-11-18T00:07:32;99764.31;;;4.20;82.00
49102;BME280;34913;47.520;19.186;2023-11-18T00:09:58;99766.75;;;4.23;81.75
49102;BME280;34913;47.520;19.186;2023-11-18T00:12:23;99768.53;;;4.23;81.57
49102;BME280;34913;47.520;19.186;2023-11-18T00:14:49;99773.28;;;4.16;82.15
49102;BME280;34913;47.520;19.186;2023-11-18T00:17:15;99779.94;;;4.07;82.56
49102;BME280;34913;47.520;19.186;2023-11-18T00:19:41;99770.19;;;4.09;82.12
49102;BME280;34913;47.520;19.186;2023-11-18T00:22:08;99780.63;;;4.11;82.17
49102;BME280;34913;47.520;19.186;2023-11-18T00:24:34;99784.00;;;4.13;81.99
49102;BME280;34913;47.520;19.186;2023-11-18T00:27:01;99792.88;;;4.10;81.79
49102;BME280;34913;47.520;19.186;2023-11-18T00:29:32;99786.31;;;4.17;81.56
49102;BME280;34913;47.520;19.186;2023-11-18T00:31:58;99792.91;;;4.25;81.31
49102;BME280;34913;47.520;19.186;2023-11-18T00:34:23;99796.56;;;4.22;81.56
49102;BME280;34913;47.520;19.186;2023-11-18T00:36:49;99796.84;;;4.17;81.75
49102;BME280;34913;47.520;19.186;2023-11-18T00:39:14;99799.09;;;4.24;81.37
49102;BME280;34913;47.520;19.186;2023-11-18T00:41:39;99804.81;;;4.16;81.90
49102;BME280;34913;47.520;19.186;2023-11-18T00:44:05;99814.78;;;4.25;81.46
49102;BME280;34913;47.520;19.186;2023-11-18T00:46:32;99803.88;;;4.17;82.02
49102;BME280;34913;47.520;19.186;2023-11-18T00:49:01;99809.97;;;4.17;81.78
49102;BME280;34913;47.520;19.186;2023-11-18T00:51:27;99811.34;;;4.09;81.80
49102;BME280;34913;47.520;19.186;2023-11-18T00:53:53;99809.19;;;4.01;82.27
49102;BME280;34913;47.520;19.186;2023-11-18T00:56:20;99811.47;;;4.07;81.84
49102;BME280;34913;47.520;19.186;2023-11-18T00:58:49;99799.16;;;4.08;81.60
49102;BME280;34913;47.520;19.186;2023-11-18T01:01:15;99820.94;;;4.10;81.47
49102;BME280;34913;47.520;19.186;2023-11-18T01:03:46;99817.78;;;4.19;81.46
49102;BME280;34913;47.520;19.186;2023-11-18T01:06:13;99814.22;;;4.20;81.35
49102;BME280;34913;47.520;19.186;2023-11-18T01:08:43;99821.66;;;3.98;82.53
49102;BME280;34913;47.520;19.186;2023-11-18T01:11:08;99827.66;;;4.00;82.89
49102;BME280;34913;47.520;19.186;2023-11-18T01:13:34;99832.66;;;4.04;82.63
49102;BME280;34913;47.520;19.186;2023-11-18T01:15:59;99833.19;;;3.95;83.02
49102;BME280;34913;47.520;19.186;2023-11-18T01:18:25;99823.28;;;3.84;84.09
49102;BME280;34913;47.520;19.186;2023-11-18T01:20:50;99833.38;;;3.76;84.71
49102;BME280;34913;47.520;19.186;2023-11-18T01:23:16;99836.75;;;3.78;84.26
49102;BME280;34913;47.520;19.186;2023-11-18T01:25:41;99841.56;;;3.86;84.17
49102;BME280;34913;47.520;19.186;2023-11-18T01:28:07;99832.69;;;3.88;83.85
49102;BME280;34913;47.520;19.186;2023-11-18T01:30:33;99836.50;;;3.83;84.14
49102;BME280;34913;47.520;19.186;2023-11-18T01:32:58;99839.97;;;3.83;84.18
49102;BME280;34913;47.520;19.186;2023-11-18T01:35:27;99855.63;;;3.85;83.94
49102;BME280;34913;47.520;19.186;2023-11-18T01:37:54;99848.97;;;3.79;84.20
49102;BME280;34913;47.520;19.186;2023-11-18T01:40:23;99848.06;;;3.80;83.71
49102;BME280;34913;47.520;19.186;2023-11-18T01:42:49;99850.06;;;3.75;84.07
49102;BME280;34913;47.520;19.186;2023-11-18T01:45:15;99846.38;;;3.63;84.18
49102;BME280;34913;47.520;19.186;2023-11-18T01:47:42;99849.56;;;3.69;84.00
49102;BME280;34913;47.520;19.186;2023-11-18T01:50:09;99838.97;;;3.70;83.63
49102;BME280;34913;47.520;19.186;2023-11-18T01:52:36;99848.38;;;3.74;83.65
49102;BME280;34913;47.520;19.186;2023-11-18T01:55:03;99847.53;;;3.74;83.64
49102;BME280;34913;47.520;19.186;2023-11-18T01:57:32;99838.84;;;3.57;84.49
49102;BME280;34913;47.520;19.186;2023-11-18T01:59:58;99842.38;;;3.72;84.09
49102;BME280;34913;47.520;19.186;2023-11-18T02:02:25;99846.59;;;3.75;84.13
49102;BME280;34913;47.520;19.186;2023-11-18T02:04:50;99839.81;;;3.71;84.55
49102;BME280;34913;47.520;19.186;2023-11-18T02:07:16;99851.16;;;3.71;84.53
49102;BME280;34913;47.520;19.186;2023-11-18T02:09:43;99838.81;;;3.73;84.35
49102;BME280;34913;47.520;19.186;2023-11-18T02:12:26;99846.09;;;3.68;84.78
49102;BME280;34913;47.520;19.186;2023-11-18T02:14:54;99850.31;;;3.71;84.58
49102;BME280;34913;47.520;19.186;2023-11-18T02:17:22;99846.94;;;3.69;84.11
49102;BME280;34913;47.520;19.186;2023-11-18T02:19:53;99840.84;;;3.68;84.23
49102;BME280;34913;47.520;19.186;2023-11-18T02:22:21;99851.22;;;3.85;83.75
49102;BME280;34913;47.520;19.186;2023-11-18T02:24:47;99844.19;;;3.86;82.97
49102;BME280;34913;47.520;19.186;2023-11-18T02:27:13;99845.91;;;3.71;83.56
49102;BME280;34913;47.520;19.186;2023-11-18T02:29:42;99848.72;;;3.68;83.83
49102;BME280;34913;47.520;19.186;2023-11-18T02:35:16;99852.72;;;3.59;84.73
49102;BME280;34913;47.520;19.186;2023-11-18T02:37:45;99843.75;;;3.63;83.75
49102;BME280;34913;47.520;19.186;2023-11-18T02:40:19;99852.78;;;3.74;83.51
49102;BME280;34913;47.520;19.186;2023-11-18T02:42:45;99858.53;;;3.80;82.99
49102;BME280;34913;47.520;19.186;2023-11-18T02:45:13;99855.66;;;3.69;83.73
49102;BME280;34913;47.520;19.186;2023-11-18T02:47:45;99852.28;;;3.67;83.82
49102;BME280;34913;47.520;19.186;2023-11-18T02:50:10;99859.41;;;3.65;83.83
49102;BME280;34913;47.520;19.186;2023-11-18T02:52:37;99852.53;;;3.62;83.69
49102;BME280;34913;47.520;19.186;2023-11-18T02:55:07;99846.53;;;3.60;83.79
49102;BME280;34913;47.520;19.186;2023-11-18T02:57:36;99849.56;;;3.69;83.37
49102;BME280;34913;47.520;19.186;2023-11-18T03:00:05;99852.28;;;3.67;83.67
49102;BME280;34913;47.520;19.186;2023-11-18T03:02:36;99855.34;;;3.59;83.85
49102;BME280;34913;47.520;19.186;2023-11-18T03:05:06;99862.59;;;3.70;82.75
49102;BME280;34913;47.520;19.186;2023-11-18T03:07:32;99861.75;;;3.70;83.06
49102;BME280;34913;47.520;19.186;2023-11-18T03:09:58;99867.44;;;3.62;83.52
49102;BME280;34913;47.520;19.186;2023-11-18T03:12:25;99867.88;;;3.54;84.02
49102;BME280;34913;47.520;19.186;2023-11-18T03:14:53;99870.75;;;3.50;84.50
49102;BME280;34913;47.520;19.186;2023-11-18T03:17:18;99864.81;;;3.62;84.03
49102;BME280;34913;47.520;19.186;2023-11-18T03:19:45;99868.88;;;3.68;84.32
49102;BME280;34913;47.520;19.186;2023-11-18T03:22:11;99873.88;;;3.72;83.59
49102;BME280;34913;47.520;19.186;2023-11-18T03:24:38;99893.75;;;3.76;83.72
49102;BME280;34913;47.520;19.186;2023-11-18T03:27:03;99895.78;;;3.71;83.82
49102;BME280;34913;47.520;19.186;2023-11-18T03:29:29;99895.88;;;3.85;83.19
49102;BME280;34913;47.520;19.186;2023-11-18T03:31:54;99897.00;;;3.81;83.72
49102;BME280;34913;47.520;19.186;2023-11-18T03:34:19;99894.94;;;3.71;84.50
49102;BME280;34913;47.520;19.186;2023-11-18T03:36:48;99896.81;;;3.69;84.68
49102;BME280;34913;47.520;19.186;2023-11-18T03:39:14;99905.03;;;3.78;84.38
49102;BME280;34913;47.520;19.186;2023-11-18T03:41:40;99904.69;;;3.84;84.16
49102;BME280;34913;47.520;19.186;2023-11-18T03:44:05;99902.91;;;3.85;84.12
49102;BME280;34913;47.520;19.186;2023-11-18T03:46:31;99896.91;;;3.83;84.29
49102;BME280;34913;47.520;19.186;2023-11-18T03:49:00;99895.44;;;3.77;85.05
49102;BME280;34913;47.520;19.186;2023-11-18T03:51:26;99884.63;;;3.83;84.68
49102;BME280;34913;47.520;19.186;2023-11-18T03:53:51;99896.06;;;3.82;84.91
49102;BME280;34913;47.520;19.186;2023-11-18T03:56:17;99901.91;;;3.87;84.82
49102;BME280;34913;47.520;19.186;2023-11-18T03:58:46;99898.94;;;3.78;85.47
49102;BME280;34913;47.520;19.186;2023-11-18T04:01:23;99901.31;;;3.82;85.38
49102;BME280;34913;47.520;19.186;2023-11-18T04:03:49;99901.56;;;3.78;85.33
49102;BME280;34913;47.520;19.186;2023-11-18T04:06:15;99894.47;;;3.80;85.61
49102;BME280;34913;47.520;19.186;2023-11-18T04:08:44;99902.75;;;3.88;85.57
49102;BME280;34913;47.520;19.186;2023-11-18T04:11:10;99905.28;;;3.89;85.60
49102;BME280;34913;47.520;19.186;2023-11-18T04:13:35;99904.69;;;3.84;85.85
49102;BME280;34913;47.520;19.186;2023-11-18T04:16:01;99908.44;;;3.80;85.92
49102;BME280;34913;47.520;19.186;2023-11-18T04:18:26;99901.91;;;3.72;86.51
49102;BME280;34913;47.520;19.186;2023-11-18T04:20:51;99905.53;;;3.85;85.84
49102;BME280;34913;47.520;19.186;2023-11-18T04:23:17;99914.63;;;3.79;86.00
49102;BME280;34913;47.520;19.186;2023-11-18T04:25:43;99921.56;;;3.80;85.97
49102;BME280;34913;47.520;19.186;2023-11-18T04:28:08;99927.56;;;3.82;86.22
49102;BME280;34913;47.520;19.186;2023-11-18T04:30:34;99925.88;;;3.81;86.03
49102;BME280;34913;47.520;19.186;2023-11-18T04:33:00;99934.75;;;3.79;86.18
49102;BME280;34913;47.520;19.186;2023-11-18T04:35:25;99929.66;;;3.91;85.78
49102;BME280;34913;47.520;19.186;2023-11-18T04:37:51;99925.03;;;3.81;86.32
49102;BME280;34913;47.520;19.186;2023-11-18T04:40:16;99936.53;;;3.78;86.70
49102;BME280;34913;47.520;19.186;2023-11-18T04:42:41;99941.63;;;3.81;86.32
49102;BME280;34913;47.520;19.186;2023-11-18T04:45:07;99936.94;;;3.86;86.32
49102;BME280;34913;47.520;19.186;2023-11-18T04:47:35;99942.19;;;3.86;86.15
49102;BME280;34913;47.520;19.186;2023-11-18T04:50:01;99938.81;;;3.84;86.57
49102;BME280;34913;47.520;19.186;2023-11-18T04:52:28;99931.25;;;3.94;86.41
49102;BME280;34913;47.520;19.186;2023-11-18T04:54:54;99944.25;;;3.81;86.95
49102;BME280;34913;47.520;19.186;2023-11-18T04:57:19;99931.03;;;3.83;86.71
49102;BME280;34913;47.520;19.186;2023-11-18T04:59:44;99946.78;;;3.83;87.09
49102;BME280;34913;47.520;19.186;2023-11-18T05:02:10;99937.53;;;3.91;86.83
49102;BME280;34913;47.520;19.186;2023-11-18T05:04:36;99935.00;;;3.90;86.76
49102;BME280;34913;47.520;19.186;2023-11-18T05:07:01;99954.03;;;3.93;86.70
49102;BME280;34913;47.520;19.186;2023-11-18T05:09:27;99947.19;;;3.91;86.96
49102;BME280;34913;47.520;19.186;2023-11-18T05:11:52;99958.31;;;3.96;86.95
49102;BME280;34913;47.520;19.186;2023-11-18T05:14:18;99963.69;;;3.93;87.38
49102;BME280;34913;47.520;19.186;2023-11-18T05:16:44;99958.38;;;3.95;87.35
49102;BME280;34913;47.520;19.186;2023-11-18T05:19:09;99953.28;;;3.91;87.62
49102;BME280;34913;47.520;19.186;2023-11-18T05:21:35;99960.75;;;3.68;89.02
49102;BME280;34913;47.520;19.186;2023-11-18T05:24:01;99951.69;;;3.57;89.80
49102;BME280;34913;47.520;19.186;2023-11-18T05:26:26;99963.72;;;3.77;88.96
49102;BME280;34913;47.520;19.186;2023-11-18T05:28:52;99959.91;;;3.83;88.41
49102;BME280;34913;47.520;19.186;2023-11-18T05:31:17;99961.88;;;3.79;88.96
49102;BME280;34913;47.520;19.186;2023-11-18T05:33:44;99962.09;;;3.75;89.18
49102;BME280;34913;47.520;19.186;2023-11-18T05:36:10;99963.78;;;3.60;90.04
49102;BME280;34913;47.520;19.186;2023-11-18T05:38:36;99956.66;;;3.62;90.34
49102;BME280;34913;47.520;19.186;2023-11-18T05:41:02;99956.63;;;3.63;90.28
49102;BME280;34913;47.520;19.186;2023-11-18T05:43:31;99958.22;;;3.66;90.18
49102;BME280;34913;47.520;19.186;2023-11-18T05:46:06;99967.25;;;3.76;89.48
49102;BME280;34913;47.520;19.186;2023-11-18T05:49:02;99966.66;;;3.87;88.78
49102;BME280;34913;47.520;19.186;2023-11-18T05:51:31;99966.25;;;3.95;88.49
49102;BME280;34913;47.520;19.186;2023-11-18T05:53:56;99964.91;;;3.87;88.83
49102;BME280;34913;47.520;19.186;2023-11-18T05:56:22;99969.06;;;3.91;88.87
49102;BME280;34913;47.520;19.186;2023-11-18T05:58:48;99984.91;;;3.90;88.65
49102;BME280;34913;47.520;19.186;2023-11-18T06:01:15;99983.34;;;3.86;89.19
49102;BME280;34913;47.520;19.186;2023-11-18T06:03:42;99982.94;;;3.78;89.78
49102;BME280;34913;47.520;19.186;2023-11-18T06:06:09;99986.75;;;3.72;90.10
49102;BME280;34913;47.520;19.186;2023-11-18T06:08:38;99978.47;;;3.80;89.61
49102;BME280;34913;47.520;19.186;2023-11-18T06:11:10;99978.78;;;3.89;88.70
49102;BME280;34913;47.520;19.186;2023-11-18T06:13:43;99974.63;;;3.70;89.87
49102;BME280;34913;47.520;19.186;2023-11-18T06:16:13;99972.28;;;3.81;89.48
49102;BME280;34913;47.520;19.186;2023-11-18T06:18:40;99974.22;;;3.93;88.58
49102;BME280;34913;47.520;19.186;2023-11-18T06:21:06;99978.53;;;3.78;89.28
49102;BME280;34913;47.520;19.186;2023-11-18T06:23:31;99978.69;;;3.75;89.52
49102;BME280;34913;47.520;19.186;2023-11-18T06:25:58;99990.38;;;3.85;88.84
49102;BME280;34913;47.520;19.186;2023-11-18T06:28:25;99980.56;;;3.89;88.37
49102;BME280;34913;47.520;19.186;2023-11-18T06:30:52;99981.50;;;3.88;88.32
49102;BME280;34913;47.520;19.186;2023-11-18T06:33:17;99989.31;;;3.89;88.19
49102;BME280;34913;47.520;19.186;2023-11-18T06:35:43;99986.50;;;3.92;88.25
49102;BME280;34913;47.520;19.186;2023-11-18T06:38:10;99988.69;;;3.84;88.57
49102;BME280;34913;47.520;19.186;2023-11-18T06:40:38;99994.47;;;3.91;88.81
49102;BME280;34913;47.520;19.186;2023-11-18T06:43:03;99995.63;;;3.85;88.43
49102;BME280;34913;47.520;19.186;2023-11-18T06:45:36;99997.50;;;3.83;88.17
49102;BME280;34913;47.520;19.186;2023-11-18T06:48:03;99982.09;;;3.93;87.29
49102;BME280;34913;47.520;19.186;2023-11-18T06:50:31;100006.50;;;4.11;86.85
49102;BME280;34913;47.520;19.186;2023-11-18T06:52:57;99998.44;;;4.14;86.09
49102;BME280;34913;47.520;19.186;2023-11-18T06:55:24;100006.97;;;4.17;85.91
49102;BME280;34913;47.520;19.186;2023-11-18T06:57:51;100012.31;;;4.16;85.97
49102;BME280;34913;47.520;19.186;2023-11-18T07:00:17;100003.88;;;4.27;85.43
49102;BME280;34913;47.520;19.186;2023-11-18T07:02:43;100034.69;;;4.23;85.81
49102;BME280;34913;47.520;19.186;2023-11-18T07:05:09;100040.97;;;4.36;85.23
49102;BME280;34913;47.520;19.186;2023-11-18T07:07:34;100043.41;;;4.24;85.66
49102;BME280;34913;47.520;19.186;2023-11-18T07:10:00;100050.28;;;4.26;86.53
49102;BME280;34913;47.520;19.186;2023-11-18T07:12:25;100044.34;;;4.38;85.54
49102;BME280;34913;47.520;19.186;2023-11-18T07:14:51;100048.75;;;4.38;85.61
49102;BME280;34913;47.520;19.186;2023-11-18T07:17:16;100050.34;;;4.40;85.39
49102;BME280;34913;47.520;19.186;2023-11-18T07:19:44;100053.69;;;4.44;85.01
49102;BME280;34913;47.520;19.186;2023-11-18T07:22:10;100054.75;;;4.40;85.40
49102;BME280;34913;47.520;19.186;2023-11-18T07:24:35;100056.13;;;4.47;84.97
49102;BME280;34913;47.520;19.186;2023-11-18T07:27:01;100050.53;;;4.53;84.70
49102;BME280;34913;47.520;19.186;2023-11-18T07:29:26;100053.28;;;4.66;83.62
49102;BME280;34913;47.520;19.186;2023-11-18T07:31:53;100054.16;;;4.66;83.31
49102;BME280;34913;47.520;19.186;2023-11-18T07:34:20;100046.38;;;4.79;82.74
49102;BME280;34913;47.520;19.186;2023-11-18T07:36:46;100059.97;;;4.71;82.95
49102;BME280;34913;47.520;19.186;2023-11-18T07:39:13;100046.38;;;4.79;82.48
49102;BME280;34913;47.520;19.186;2023-11-18T07:41:49;100054.13;;;4.82;82.05
49102;BME280;34913;47.520;19.186;2023-11-18T07:44:14;100048.75;;;4.84;83.25
49102;BME280;34913;47.520;19.186;2023-11-18T07:46:41;100047.47;;;4.91;81.21
49102;BME280;34913;47.520;19.186;2023-11-18T07:49:08;100059.69;;;4.92;81.43
49102;BME280;34913;47.520;19.186;2023-11-18T07:51:34;100052.19;;;5.00;79.88
49102;BME280;34913;47.520;19.186;2023-11-18T07:53:59;100045.72;;;5.06;79.62
49102;BME280;34913;47.520;19.186;2023-11-18T07:56:25;100048.75;;;5.14;79.25
49102;BME280;34913;47.520;19.186;2023-11-18T07:58:52;100037.00;;;5.19;79.20
49102;BME280;34913;47.520;19.186;2023-11-18T08:01:20;100045.56;;;5.23;79.28
49102;BME280;34913;47.520;19.186;2023-11-18T08:03:46;100047.75;;;5.30;79.02
49102;BME280;34913;47.520;19.186;2023-11-18T08:06:13;100061.16;;;5.26;78.84
49102;BME280;34913;47.520;19.186;2023-11-18T08:08:38;100069.63;;;5.31;78.28
49102;BME280;34913;47.520;19.186;2023-11-18T08:11:05;100072.06;;;5.34;78.38
49102;BME280;34913;47.520;19.186;2023-11-18T08:13:31;100053.09;;;5.43;78.35
49102;BME280;34913;47.520;19.186;2023-11-18T08:15:56;100070.50;;;5.46;77.91
49102;BME280;34913;47.520;19.186;2023-11-18T08:18:23;100065.53;;;5.55;76.36
49102;BME280;34913;47.520;19.186;2023-11-18T08:20:49;100074.28;;;5.56;76.38
49102;BME280;34913;47.520;19.186;2023-11-18T08:23:15;100080.88;;;5.63;76.68
49102;BME280;34913;47.520;19.186;2023-11-18T08:25:40;100080.88;;;5.77;75.36
49102;BME280;34913;47.520;19.186;2023-11-18T08:28:07;100079.63;;;5.83;74.83
49102;BME280;34913;47.520;19.186;2023-11-18T08:30:42;100090.63;;;5.89;74.36
49102;BME280;34913;47.520;19.186;2023-11-18T08:33:07;100086.31;;;5.88;73.89
49102;BME280;34913;47.520;19.186;2023-11-18T08:35:36;100078.41;;;5.88;75.31
49102;BME280;34913;47.520;19.186;2023-11-18T08:38:02;100094.50;;;5.98;73.62
49102;BME280;34913;47.520;19.186;2023-11-18T08:40:29;100100.53;;;6.00;73.10
49102;BME280;34913;47.520;19.186;2023-11-18T08:42:55;100105.69;;;6.16;72.68
49102;BME280;34913;47.520;19.186;2023-11-18T08:45:25;100101.47;;;6.13;72.34
49102;BME280;34913;47.520;19.186;2023-11-18T08:47:59;100105.69;;;6.16;72.17
49102;BME280;34913;47.520;19.186;2023-11-18T08:50:27;100103.16;;;6.29;72.02
49102;BME280;34913;47.520;19.186;2023-11-18T08:52:55;100098.81;;;6.28;72.85
49102;BME280;34913;47.520;19.186;2023-11-18T08:55:27;100099.94;;;6.24;72.55
49102;BME280;34913;47.520;19.186;2023-11-18T08:58:09;100099.63;;;6.42;71.19
49102;BME280;34913;47.520;19.186;2023-11-18T09:00:44;100103.41;;;6.38;71.96
49102;BME280;34913;47.520;19.186;2023-11-18T09:03:19;100112.81;;;6.42;72.04
49102;BME280;34913;47.520;19.186;2023-11-18T09:05:58;100109.69;;;6.50;71.81
49102;BME280;34913;47.520;19.186;2023-11-18T09:08:27;100100.69;;;6.67;70.66
49102;BME280;34913;47.520;19.186;2023-11-18T09:10:55;100097.66;;;6.73;71.02
49102;BME280;34913;47.520;19.186;2023-11-18T09:13:22;100103.75;;;6.88;70.79
49102;BME280;34913;47.520;19.186;2023-11-18T09:15:50;100108.25;;;6.86;71.34
49102;BME280;34913;47.520;19.186;2023-11-18T09:18:16;100100.03;;;6.90;70.43
49102;BME280;34913;47.520;19.186;2023-11-18T09:20:43;100110.88;;;6.86;69.83
49102;BME280;34913;47.520;19.186;2023-11-18T09:23:09;100111.00;;;6.84;70.19
49102;BME280;34913;47.520;19.186;2023-11-18T09:25:34;100109.25;;;7.10;69.47
49102;BME280;34913;47.520;19.186;2023-11-18T09:28:01;100115.72;;;7.06;68.70
49102;BME280;34913;47.520;19.186;2023-11-18T09:30:28;100116.03;;;7.14;68.57
49102;BME280;34913;47.520;19.186;2023-11-18T09:32:54;100108.41;;;7.10;68.70
49102;BME280;34913;47.520;19.186;2023-11-18T09:35:20;100110.66;;;7.16;68.93
49102;BME280;34913;47.520;19.186;2023-11-18T09:37:46;100115.59;;;7.08;68.88
49102;BME280;34913;47.520;19.186;2023-11-18T09:40:16;100123.84;;;7.03;68.74
49102;BME280;34913;47.520;19.186;2023-11-18T09:42:42;100132.88;;;6.99;69.22
49102;BME280;34913;47.520;19.186;2023-11-18T09:45:09;100137.47;;;7.10;68.83
49102;BME280;34913;47.520;19.186;2023-11-18T09:47:45;100121.19;;;7.03;68.13
49102;BME280;34913;47.520;19.186;2023-11-18T09:50:17;100125.53;;;7.17;68.63
49102;BME280;34913;47.520;19.186;2023-11-18T09:52:49;100112.41;;;7.03;68.37
49102;BME280;34913;47.520;19.186;2023-11-18T09:55:40;100119.25;;;7.19;69.26
49102;BME280;34913;47.520;19.186;2023-11-18T09:58:09;100124.78;;;7.54;67.06
49102;BME280;34913;47.520;19.186;2023-11-18T10:00:39;100122.16;;;7.67;67.53
49102;BME280;34913;47.520;19.186;2023-11-18T10:03:07;100125.19;;;7.87;65.36
49102;BME280;34913;47.520;19.186;2023-11-18T10:05:41;100129.22;;;7.79;66.00
49102;BME280;34913;47.520;19.186;2023-11-18T10:08:07;100118.44;;;7.82;65.79
49102;BME280;34913;47.520;19.186;2023-11-18T10:10:33;100133.13;;;7.74;65.82
49102;BME280;34913;47.520;19.186;2023-11-18T10:13:10;100138.81;;;7.80;65.54
49102;BME280;34913;47.520;19.186;2023-11-18T10:15:46;100137.25;;;7.78;64.99
49102;BME280;34913;47.520;19.186;2023-11-18T10:18:13;100134.00;;;7.74;65.66
49102;BME280;34913;47.520;19.186;2023-11-18T10:20:50;100140.41;;;7.70;66.88
49102;BME280;34913;47.520;19.186;2023-11-18T10:23:21;100145.72;;;7.70;66.04
49102;BME280;34913;47.520;19.186;2023-11-18T10:28:32;100140.22;;;7.61;66.80
49102;BME280;34913;47.520;19.186;2023-11-18T10:31:02;100135.03;;;7.59;66.55
49102;BME280;34913;47.520;19.186;2023-11-18T10:33:32;100132.19;;;7.62;66.79
49102;BME280;34913;47.520;19.186;2023-11-18T10:35:59;100135.66;;;7.63;65.79
49102;BME280;34913;47.520;19.186;2023-11-18T10:38:32;100130.47;;;7.48;67.00
49102;BME280;34913;47.520;19.186;2023-11-18T10:41:02;100136.59;;;7.49;67.48
49102;BME280;34913;47.520;19.186;2023-11-18T10:43:27;100132.66;;;7.42;65.98
49102;BME280;34913;47.520;19.186;2023-11-18T10:46:16;100128.06;;;7.71;64.72
49102;BME280;34913;47.520;19.186;2023-11-18T10:48:43;100132.38;;;7.72;65.76
49102;BME280;34913;47.520;19.186;2023-11-18T10:51:14;100137.66;;;7.72;64.13
49102;BME280;34913;47.520;19.186;2023-11-18T10:53:51;100146.56;;;7.71;64.74
49102;BME280;34913;47.520;19.186;2023-11-18T10:56:29;100144.13;;;7.80;65.53
49102;BME280;34913;47.520;19.186;2023-11-18T10:59:05;100134.63;;;7.78;63.68
49102;BME280;34913;47.520;19.186;2023-11-18T11:01:32;100139.56;;;7.95;63.66
49102;BME280;34913;47.520;19.186;2023-11-18T11:03:58;100148.97;;;8.12;63.58
49102;BME280;34913;47.520;19.186;2023-11-18T11:06:25;100147.09;;;8.14;62.10
49102;BME280;34913;47.520;19.186;2023-11-18T11:08:54;100130.03;;;8.18;61.33
49102;BME280;34913;47.520;19.186;2023-11-18T11:11:20;100122.09;;;8.05;62.58
49102;BME280;34913;47.520;19.186;2023-11-18T11:13:49;100126.66;;;8.16;62.12
49102;BME280;34913;47.520;19.186;2023-11-18T11:16:18;100122.34;;;8.15;61.25
49102;BME280;34913;47.520;19.186;2023-11-18T11:18:48;100140.09;;;8.00;60.59
49102;BME280;34913;47.520;19.186;2023-11-18T11:21:20;100155.13;;;7.87;62.04
49102;BME280;34913;47.520;19.186;2023-11-18T11:24:48;100157.53;;;7.65;62.18
49102;BME280;34913;47.520;19.186;2023-11-18T11:27:33;100162.06;;;7.63;61.21
49102;BME280;34913;47.520;19.186;2023-11-18T11:30:23;100159.66;;;7.60;61.19
49102;BME280;34913;47.520;19.186;2023-11-18T11:32:51;100161.34;;;7.61;60.97
49102;BME280;34913;47.520;19.186;2023-11-18T11:35:24;100158.84;;;7.32;62.64
49102;BME280;34913;47.520;19.186;2023-11-18T11:37:56;100162.66;;;7.28;63.22
49102;BME280;34913;47.520;19.186;2023-11-18T11:40:28;100163.94;;;7.35;62.58
49102;BME280;34913;47.520;19.186;2023-11-18T11:42:55;100154.91;;;7.25;63.09
49102;BME280;34913;47.520;19.186;2023-11-18T11:45:23;100160.53;;;7.20;62.75
49102;BME280;34913;47.520;19.186;2023-11-18T11:47:54;100172.16;;;7.31;63.12
49102;BME280;34913;47.520;19.186;2023-11-18T11:51:30;100176.59;;;7.30;63.50
49102;BME280;34913;47.520;19.186;2023-11-18T11:53:35;100177.16;;;7.35;63.66
49102;BME280;34913;47.520;19.186;2023-11-18T11:56:11;100169.53;;;7.31;63.47
49102;BME280;34913;47.520;19.186;2023-11-18T11:58:41;100171.97;;;7.46;63.65
49102;BME280;34913;47.520;19.186;2023-11-18T12:01:35;100172.31;;;7.54;61.82
49102;BME280;34913;47.520;19.186;2023-11-18T12:04:08;100179.09;;;7.59;62.19
49102;BME280;34913;47.520;19.186;2023-11-18T12:06:42;100175.06;;;7.53;61.83
49102;BME280;34913;47.520;19.186;2023-11-18T12:09:09;100166.06;;;7.55;62.90
49102;BME280;34913;47.520;19.186;2023-11-18T12:11:36;100183.84;;;7.53;63.44
49102;BME280;34913;47.520;19.186;2023-11-18T12:14:08;100167.66;;;7.45;62.70
49102;BME280;34913;47.520;19.186;2023-11-18T12:17:05;100180.13;;;7.56;62.47
49102;BME280;34913;47.520;19.186;2023-11-18T12:19:38;100188.50;;;7.63;63.42
49102;BME280;34913;47.520;19.186;2023-11-18T12:22:21;100192.63;;;7.67;63.14
49102;BME280;34913;47.520;19.186;2023-11-18T12:41:38;100200.41;;;7.55;63.67
49102;BME280;34913;47.520;19.186;2023-11-18T12:48:57;100190.75;;;7.42;62.97
49102;BME280;34913;47.520;19.186;2023-11-18T12:51:25;100195.06;;;7.30;63.72
49102;BME280;34913;47.520;19.186;2023-11-18T12:53:51;100201.94;;;7.33;63.97
49102;BME280;34913;47.520;19.186;2023-11-18T12:56:19;100198.56;;;7.31;63.15
49102;BME280;34913;47.520;19.186;2023-11-18T12:58:48;100197.72;;;7.30;63.01
49102;BME280;34913;47.520;19.186;2023-11-18T13:01:14;100204.56;;;7.20;63.30
49102;BME280;34913;47.520;19.186;2023-11-18T13:03:41;100208.16;;;7.19;63.97
49102;BME280;34913;47.520;19.186;2023-11-18T13:06:11;100204.44;;;7.21;63.38
49102;BME280;34913;47.520;19.186;2023-11-18T13:08:40;100214.41;;;7.31;63.00
49102;BME280;34913;47.520;19.186;2023-11-18T13:11:06;100224.50;;;7.24;63.46
49102;BME280;34913;47.520;19.186;2023-11-18T13:13:38;100223.47;;;7.26;64.03
49102;BME280;34913;47.520;19.186;2023-11-18T13:16:04;100218.63;;;7.06;64.74
49102;BME280;34913;47.520;19.186;2023-11-18T13:18:44;100215.63;;;7.25;63.79
49102;BME280;34913;47.520;19.186;2023-11-18T13:21:17;100220.56;;;7.17;64.73
49102;BME280;34913;47.520;19.186;2023-11-18T13:23:51;100234.63;;;7.17;64.19
49102;BME280;34913;47.520;19.186;2023-11-18T13:26:19;100232.94;;;7.16;64.57
49102;BME280;34913;47.520;19.186;2023-11-18T13:28:47;100236.53;;;7.15;64.19